Time;durP1;ratioP1;P1;durP2;ratioP2;P2;SDS_P1;SDS_P2;PMS_P1;PMS_P2;Temp;Humidity;BMP_temperature;BMP_pressure;BME280_temperature;BME280_humidity;BME280_pressure;Samples;Min_cycle;Max_cycle;Signal;HPM_P1;HPM_P2
2022/04/19 00:00:44;;;;;;;3.10;2.80;;;10.50;78.00;;;;;;5014910;28;20198;-56
2022/04/19 00:03:11;;;;;;;2.80;2.60;;;10.40;79.20;;;;;;5014369;28;20184;-57
2022/04/19 00:05:37;;;;;;;3.40;3.10;;;10.40;78.30;;;;;;5014754;28;20743;-54
2022/04/19 00:08:04;;;;;;;3.90;3.50;;;10.30;78.30;;;;;;5014253;28;20199;-52
2022/04/19 00:10:30;;;;;;;3.40;3.10;;;10.30;78.80;;;;;;5013250;28;20542;-54
2022/04/19 00:12:57;;;;;;;3.50;3.20;;;10.30;79.60;;;;;;5013506;28;20192;-51
2022/04/19 00:15:27;;;;;;;3.70;3.30;;;10.20;80.20;;;;;;5012665;28;20173;-52
2022/04/19 00:17:52;;;;;;;4.83;3.50;;;10.20;80.70;;;;;;5012621;28;20173;-54
2022/04/19 00:20:18;;;;;;;3.83;3.47;;;10.20;81.70;;;;;;5013091;28;20176;-52
2022/04/19 00:22:43;;;;;;;3.97;3.53;;;10.30;82.00;;;;;;5013883;28;20196;-53
2022/04/19 00:25:09;;;;;;;4.87;3.67;;;10.30;82.10;;;;;;5013959;28;20703;-53
2022/04/19 00:27:35;;;;;;;4.90;4.07;;;10.20;82.20;;;;;;5014291;28;20666;-52
2022/04/19 00:30:01;;;;;;;4.40;3.87;;;10.20;82.80;;;;;;5014091;28;20179;-54
2022/04/19 00:32:27;;;;;;;4.33;3.67;;;10.20;83.10;;;;;;5013447;28;20173;-52
2022/04/19 00:34:53;;;;;;;4.60;3.83;;;10.10;83.90;;;;;;5014236;28;20264;-52
2022/04/19 00:37:19;;;;;;;4.40;3.67;;;10.00;84.10;;;;;;5013754;28;20661;-54
2022/04/19 00:39:45;;;;;;;4.23;3.80;;;10.00;83.80;;;;;;5013973;28;20169;-52
2022/04/19 00:42:10;;;;;;;3.20;2.90;;;10.00;83.60;;;;;;5013656;28;20191;-50
2022/04/19 00:44:39;;;;;;;3.83;3.53;;;10.00;82.80;;;;;;5013693;28;20565;-54
2022/04/19 00:47:09;;;;;;;3.63;3.30;;;10.00;82.60;;;;;;5013566;28;20581;-53
2022/04/19 00:49:43;;;;;;;4.00;3.47;;;10.00;82.90;;;;;;5013185;28;20249;-55
2022/04/19 00:52:10;;;;;;;4.67;3.60;;;10.00;83.30;;;;;;5013312;28;20255;-55
2022/04/19 00:54:36;;;;;;;3.93;3.53;;;10.10;83.60;;;;;;5013489;28;20172;-52
2022/04/19 00:57:03;;;;;;;3.73;3.33;;;10.10;84.80;;;;;;5013929;28;20175;-52
2022/04/19 00:59:29;;;;;;;3.67;3.17;;;10.10;85.50;;;;;;5013314;28;20173;-52
2022/04/19 01:01:54;;;;;;;2.80;2.60;;;10.10;85.10;;;;;;5013933;28;20187;-52
2022/04/19 01:04:20;;;;;;;3.23;2.93;;;10.20;84.80;;;;;;5012791;28;20212;-54
2022/04/19 01:06:46;;;;;;;2.87;2.50;;;10.20;84.50;;;;;;5013474;28;21051;-55
2022/04/19 01:09:12;;;;;;;2.97;2.70;;;10.20;84.30;;;;;;5013199;28;20165;-52
2022/04/19 01:14:24;;;;;;;3.30;2.67;;;10.30;83.90;;;;;;5012835;28;20253;-52
2022/04/19 01:16:50;;;;;;;3.00;2.70;;;10.30;84.50;;;;;;5012518;28;20176;-54
2022/04/19 01:19:16;;;;;;;3.10;2.70;;;10.30;84.60;;;;;;5013191;28;20255;-54
2022/04/19 01:21:54;;;;;;;3.17;2.87;;;10.30;85.20;;;;;;5013103;28;20307;-52
2022/04/19 01:24:22;;;;;;;3.70;3.03;;;10.20;85.40;;;;;;5013016;28;20192;-53
2022/04/19 01:26:48;;;;;;;3.20;2.93;;;10.20;86.70;;;;;;5013032;28;20263;-52
2022/04/19 01:29:15;;;;;;;3.30;3.00;;;10.10;88.10;;;;;;5013351;28;20165;-52
2022/04/19 01:31:42;;;;;;;3.60;3.20;;;10.10;88.10;;;;;;5012550;28;20168;-54
2022/04/19 01:34:08;;;;;;;4.07;2.90;;;8.30;86.90;;;;;;5012652;28;20212;-52
2022/04/19 01:36:37;;;;;;;3.83;3.10;;;10.10;88.00;;;;;;5012742;28;20172;-51
2022/04/19 01:39:04;;;;;;;2.87;2.67;;;10.10;87.50;;;;;;5013114;28;20191;-52
2022/04/19 01:41:30;;;;;;;3.10;2.80;;;10.10;87.80;;;;;;5012801;28;20673;-53
2022/04/19 01:43:55;;;;;;;3.60;3.00;;;10.10;88.10;;;;;;5011415;28;20210;-53
2022/04/19 01:46:23;;;;;;;3.20;3.00;;;10.10;87.60;;;;;;5012788;28;20176;-52
2022/04/19 01:48:50;;;;;;;5.00;3.23;;;10.00;88.00;;;;;;5012695;28;20164;-51
2022/04/19 01:51:16;;;;;;;3.90;3.20;;;10.00;88.90;;;;;;5012807;28;20192;-53
2022/04/19 01:53:42;;;;;;;4.10;2.80;;;10.00;88.90;;;;;;5012025;28;20557;-53
2022/04/19 01:56:08;;;;;;;3.10;2.70;;;9.90;90.00;;;;;;5012669;28;20630;-51
2022/04/19 01:58:33;;;;;;;3.13;2.80;;;9.90;90.10;;;;;;5012547;28;20180;-52
2022/04/19 02:00:59;;;;;;;4.03;2.90;;;9.90;89.30;;;;;;5012416;28;20660;-53
2022/04/19 02:03:24;;;;;;;4.57;3.10;;;9.70;89.00;;;;;;5012068;28;20195;-51
2022/04/19 02:05:50;;;;;;;4.40;3.40;;;9.70;89.50;;;;;;5011821;28;20240;-55
2022/04/19 02:08:15;;;;;;;3.63;3.30;;;9.70;90.20;;;;;;5012403;28;20520;-54
2022/04/19 02:10:41;;;;;;;4.50;3.10;;;9.70;90.20;;;;;;5011919;28;20211;-52
2022/04/19 02:13:07;;;;;;;5.20;3.43;;;9.70;90.20;;;;;;5011696;28;20192;-54
2022/04/19 02:15:32;;;;;;;3.03;2.83;;;9.60;90.20;;;;;;5011968;28;20554;-55
2022/04/19 02:17:58;;;;;;;4.13;3.57;;;9.60;90.20;;;;;;5012062;28;20650;-53
2022/04/19 02:20:23;;;;;;;3.50;3.13;;;9.60;90.30;;;;;;5011655;28;20183;-53
2022/04/19 02:22:49;;;;;;;3.90;3.50;;;9.50;90.50;;;;;;5011572;28;20199;-54
2022/04/19 02:25:16;;;;;;;3.90;3.50;;;9.40;90.60;;;;;;5012099;28;20196;-56
2022/04/19 02:27:43;;;;;;;4.00;3.60;;;9.30;90.80;;;;;;5011705;28;20186;-56
2022/04/19 02:30:13;;;;;;;3.47;3.17;;;9.30;90.90;;;;;;5011993;28;20176;-54
2022/04/19 02:32:49;;;;;;;3.67;2.80;;;9.30;91.00;;;;;;5011034;28;20235;-55
2022/04/19 02:35:18;;;;;;;3.80;2.80;;;9.30;91.30;;;;;;5011870;28;20172;-58
2022/04/19 02:37:52;;;;;;;3.60;2.90;;;9.20;91.20;;;;;;5011887;28;20172;-54
2022/04/19 02:40:19;;;;;;;2.97;2.70;;;9.20;91.20;;;;;;5012484;28;20163;-57
2022/04/19 02:42:46;;;;;;;3.67;2.50;;;9.20;91.10;;;;;;5011079;28;20188;-52
2022/04/19 02:45:12;;;;;;;3.20;2.90;;;9.20;91.10;;;;;;5011949;28;20200;-56
2022/04/19 02:47:38;;;;;;;3.40;2.83;;;9.20;91.10;;;;;;5010732;28;20207;-52
2022/04/19 02:50:05;;;;;;;3.27;2.90;;;9.20;91.10;;;;;;5011930;28;20172;-52
2022/04/19 02:52:31;;;;;;;3.43;2.80;;;9.20;91.00;;;;;;5011687;28;20188;-52
2022/04/19 02:54:56;;;;;;;4.97;3.40;;;9.20;91.00;;;;;;5011743;28;20626;-54
2022/04/19 02:57:22;;;;;;;4.27;3.50;;;9.10;92.10;;;;;;5012365;28;20672;-54
2022/04/19 02:59:48;;;;;;;3.80;3.40;;;9.00;92.10;;;;;;5011054;28;20708;-56
2022/04/19 03:02:14;;;;;;;3.97;3.57;;;8.90;92.30;;;;;;5010204;28;20596;-55
2022/04/19 03:04:40;;;;;;;3.63;3.30;;;8.80;92.30;;;;;;5011363;28;20196;-55
2022/04/19 03:07:05;;;;;;;3.50;3.17;;;8.80;92.60;;;;;;5010645;28;20188;-53
2022/04/19 03:09:31;;;;;;;3.33;2.97;;;8.80;92.60;;;;;;5011448;28;20172;-53
2022/04/19 03:11:57;;;;;;;3.37;3.03;;;8.90;92.60;;;;;;5011568;28;20263;-52
2022/04/19 03:14:25;;;;;;;3.67;3.10;;;8.90;92.60;;;;;;5011184;28;20749;-55
2022/04/19 03:16:51;;;;;;;4.97;3.20;;;8.90;92.90;;;;;;5011448;28;20165;-53
2022/04/19 03:19:17;;;;;;;3.43;3.13;;;8.90;92.90;;;;;;5011744;28;20203;-53
2022/04/19 03:21:42;;;;;;;3.63;3.10;;;8.90;92.80;;;;;;5010594;28;20569;-55
2022/04/19 03:29:36;;;;;;;3.20;2.90;;;8.90;92.60;;;;;;5012426;28;20661;-52
2022/04/19 03:32:02;;;;;;;4.83;2.93;;;8.90;92.60;;;;;;5011462;28;20172;-55
2022/04/19 03:34:27;;;;;;;2.90;2.70;;;8.90;92.60;;;;;;5010705;28;20208;-54
2022/04/19 03:36:53;;;;;;;3.13;2.60;;;8.90;92.60;;;;;;5010885;28;20180;-54
2022/04/19 03:39:19;;;;;;;4.23;2.93;;;8.90;92.80;;;;;;5010937;28;20173;-52
2022/04/19 03:41:57;;;;;;;3.80;3.00;;;8.80;93.00;;;;;;5011439;28;20211;-53
2022/04/19 03:44:25;;;;;;;3.20;2.83;;;8.80;93.30;;;;;;5010668;28;20200;-52
2022/04/19 03:47:09;;;;;;;3.67;3.10;;;8.80;93.90;;;;;;5011295;28;20630;-56
2022/04/19 03:49:40;;;;;;;3.10;2.80;;;8.80;93.70;;;;;;5011043;28;20160;-55
2022/04/19 03:52:06;;;;;;;3.10;2.80;;;8.80;93.40;;;;;;5009471;28;20230;-56
2022/04/19 03:54:34;;;;;;;3.10;2.80;;;8.70;93.30;;;;;;5012260;28;20201;-52
2022/04/19 03:57:09;;;;;;;3.93;2.80;;;8.70;93.30;;;;;;5015044;28;20247;-56
2022/04/19 03:59:37;;;;;;;3.17;2.87;;;8.80;93.30;;;;;;5014558;28;20596;-55
2022/04/19 04:02:04;;;;;;;4.10;3.20;;;8.70;93.20;;;;;;5014576;28;20168;-56
2022/04/19 04:04:33;;;;;;;3.10;2.80;;;8.80;93.20;;;;;;5014187;28;20212;-55
2022/04/19 04:07:03;;;;;;;2.87;2.67;;;8.70;93.10;;;;;;5014449;28;20167;-53
2022/04/19 04:09:32;;;;;;;3.20;2.90;;;8.70;93.00;;;;;;5014709;28;20196;-55
2022/04/19 04:12:09;;;;;;;2.87;2.67;;;8.70;93.20;;;;;;5014035;28;20164;-55
2022/04/19 04:14:35;;;;;;;3.40;3.00;;;8.70;93.40;;;;;;5013665;28;20192;-56
2022/04/19 04:17:01;;;;;;;3.80;2.90;;;8.70;94.10;;;;;;5014284;28;20169;-52
2022/04/19 04:19:26;;;;;;;2.83;2.57;;;8.70;94.60;;;;;;5014597;28;20180;-55
2022/04/19 04:21:52;;;;;;;3.57;2.80;;;8.60;94.40;;;;;;5014039;28;20177;-56
2022/04/19 04:24:18;;;;;;;4.20;3.07;;;8.60;94.20;;;;;;5013417;28;20235;-52
2022/04/19 04:26:44;;;;;;;3.20;2.90;;;8.60;94.20;;;;;;5014084;28;20653;-53
2022/04/19 04:29:09;;;;;;;3.20;2.90;;;8.60;94.30;;;;;;5013078;28;20168;-57
2022/04/19 04:31:35;;;;;;;3.33;2.93;;;8.60;94.40;;;;;;5013015;28;20183;-54
2022/04/19 04:34:00;;;;;;;4.03;2.80;;;8.70;94.20;;;;;;5069479;22;20227;-56
2022/04/19 04:36:26;;;;;;;3.13;2.83;;;8.70;94.30;;;;;;5033520;28;20171;-55
2022/04/19 04:38:51;;;;;;;3.67;2.90;;;8.70;95.10;;;;;;5032924;28;20172;-58
2022/04/19 04:41:17;;;;;;;4.30;3.33;;;8.60;95.10;;;;;;5034037;28;20176;-56
2022/04/19 04:43:43;;;;;;;3.20;2.90;;;8.60;94.70;;;;;;5033377;28;20188;-56
2022/04/19 04:51:38;;;;;;;3.93;2.70;;;8.70;95.30;;;;;;5033969;28;20659;-56
2022/04/19 04:54:03;;;;;;;2.93;2.57;;;8.70;94.90;;;;;;5032092;28;20204;-53
2022/04/19 04:56:29;;;;;;;2.97;2.60;;;8.70;94.30;;;;;;5033506;28;20255;-52
2022/04/19 04:58:55;;;;;;;3.30;2.80;;;8.70;94.30;;;;;;5033699;28;20576;-53
2022/04/19 05:01:21;;;;;;;2.70;2.50;;;8.70;94.10;;;;;;5033193;28;20233;-54
2022/04/19 05:03:46;;;;;;;3.07;2.77;;;8.80;94.10;;;;;;5033027;28;20195;-53
2022/04/19 05:06:12;;;;;;;2.70;2.47;;;8.70;93.90;;;;;;5032236;28;20653;-53
2022/04/19 05:08:37;;;;;;;2.90;2.60;;;8.80;93.80;;;;;;5033484;28;20176;-52
2022/04/19 05:11:03;;;;;;;3.13;2.80;;;8.90;93.60;;;;;;5033218;28;20180;-53
2022/04/19 05:13:29;;;;;;;4.13;2.60;;;8.70;95.90;;;;;;5033183;28;20192;-56
2022/04/19 05:15:54;;;;;;;3.60;3.10;;;8.50;95.80;;;;;;5033305;28;20668;-56
2022/04/19 05:18:20;;;;;;;3.57;3.10;;;8.50;97.60;;;;;;5031935;28;20207;-56
2022/04/19 05:20:45;;;;;;;3.33;2.87;;;8.50;97.00;;;;;;5033228;28;20183;-53
2022/04/19 05:23:11;;;;;;;4.80;3.47;;;8.50;97.30;;;;;;5031997;28;20206;-52
2022/04/19 05:25:36;;;;;;;4.10;3.70;;;8.50;97.20;;;;;;5033024;28;20668;-53
2022/04/19 05:28:02;;;;;;;4.60;3.80;;;8.50;97.60;;;;;;5032668;28;20819;-56
2022/04/19 05:30:27;;;;;;;4.83;3.53;;;8.50;98.10;;;;;;5032941;28;20179;-51
2022/04/19 05:32:53;;;;;;;5.00;3.90;;;8.50;99.10;;;;;;5032001;28;20178;-52
2022/04/19 05:35:19;;;;;;;4.40;3.67;;;8.50;99.90;;;;;;5030799;28;20656;-51
2022/04/19 05:37:45;;;;;;;3.97;3.40;;;8.60;99.90;;;;;;5032879;28;20183;-51
2022/04/19 05:40:11;;;;;;;4.00;3.60;;;8.60;99.90;;;;;;5032444;28;20164;-50
2022/04/19 05:42:37;;;;;;;3.80;3.50;;;8.70;99.90;;;;;;5032197;28;20233;-51
2022/04/19 05:45:03;;;;;;;4.97;3.97;;;8.70;99.80;;;;;;5032170;28;20576;-53
2022/04/19 05:47:29;;;;;;;4.13;3.80;;;8.80;99.80;;;;;;5032101;28;20175;-52
2022/04/19 05:49:54;;;;;;;4.30;3.70;;;8.70;99.90;;;;;;5032392;28;20164;-52
2022/04/19 05:52:20;;;;;;;4.17;3.50;;;8.70;99.90;;;;;;5031770;28;20206;-53
2022/04/19 05:54:45;;;;;;;4.37;3.90;;;8.70;99.90;;;;;;5032084;28;20195;-52
2022/04/19 05:57:11;;;;;;;4.60;4.00;;;8.70;99.90;;;;;;5014406;28;20244;-52
2022/04/19 05:59:36;;;;;;;4.30;3.80;;;8.70;99.90;;;;;;5032311;28;20195;-54
2022/04/19 06:04:53;;;;;;;4.53;4.10;;;8.80;99.90;;;;;;5022086;28;20300;-51
2022/04/19 06:07:32;;;;;;;3.93;3.63;;;8.90;99.90;;;;;;5032036;28;20164;-49
2022/04/19 06:09:58;;;;;;;4.47;3.43;;;8.90;99.90;;;;;;5030115;28;20179;-49
2022/04/19 06:12:25;;;;;;;3.63;3.13;;;8.90;99.90;;;;;;5028294;28;20171;-54
2022/04/19 06:14:50;;;;;;;4.03;3.43;;;8.80;99.90;;;;;;5028291;28;20596;-51
2022/04/19 06:17:17;;;;;;;3.73;3.40;;;8.80;99.90;;;;;;5027885;28;20172;-48
2022/04/19 06:19:44;;;;;;;3.80;3.40;;;8.90;99.90;;;;;;5030093;28;20171;-51
2022/04/19 06:22:10;;;;;;;3.83;3.20;;;8.90;99.90;;;;;;5029365;28;20172;-53
2022/04/19 06:24:36;;;;;;;3.50;3.20;;;8.90;99.90;;;;;;5030660;28;20622;-49
2022/04/19 06:27:02;;;;;;;3.60;3.10;;;9.00;99.90;;;;;;5031739;28;20257;-49
2022/04/19 06:29:27;;;;;;;5.33;4.60;;;9.10;99.90;;;;;;5014346;28;20207;-54
2022/04/19 06:31:53;;;;;;;4.13;3.70;;;9.20;99.70;;;;;;5031739;28;20247;-50
2022/04/19 06:34:19;;;;;;;4.03;3.63;;;9.30;99.80;;;;;;5031551;28;20211;-51
2022/04/19 06:36:44;;;;;;;4.10;3.70;;;9.30;99.40;;;;;;5014132;28;20174;-50
2022/04/19 06:39:10;;;;;;;4.33;3.93;;;9.30;99.50;;;;;;5032043;28;20195;-50
2022/04/19 06:41:36;;;;;;;5.40;4.20;;;9.10;99.90;;;;;;5014348;28;20219;-51
2022/04/19 06:44:02;;;;;;;6.57;3.57;;;9.00;99.90;;;;;;5031375;28;20206;-53
2022/04/19 06:46:28;;;;;;;5.90;4.37;;;9.10;99.90;;;;;;5029078;28;20179;-56
2022/04/19 06:48:54;;;;;;;4.70;4.13;;;8.90;99.90;;;;;;5027362;28;20196;-54
2022/04/19 06:51:23;;;;;;;5.07;4.53;;;8.60;99.90;;;;;;5033024;28;20218;-56
2022/04/19 06:53:49;;;;;;;4.90;4.40;;;8.40;99.90;;;;;;5032289;28;20192;-54
2022/04/19 06:56:15;;;;;;;4.37;3.97;;;8.30;99.90;;;;;;5032932;28;20167;-55
2022/04/19 06:58:42;;;;;;;4.63;4.20;;;8.40;99.90;;;;;;5032719;28;20172;-53
2022/04/19 07:01:10;;;;;;;4.33;3.97;;;8.50;99.90;;;;;;5032435;28;20195;-55
2022/04/19 07:03:36;;;;;;;4.60;4.20;;;8.50;99.90;;;;;;5032015;28;20187;-50
2022/04/19 07:06:03;;;;;;;5.07;4.57;;;8.50;99.90;;;;;;5032187;28;20568;-51
2022/04/19 07:08:29;;;;;;;4.93;4.40;;;8.50;99.90;;;;;;5032472;28;20175;-52
2022/04/19 07:10:56;;;;;;;4.80;4.30;;;8.70;99.90;;;;;;5031679;28;20301;-57
2022/04/19 07:13:22;;;;;;;4.57;4.00;;;9.00;99.90;;;;;;5030982;28;20271;-52
2022/04/19 07:15:48;;;;;;;5.20;4.70;;;9.20;99.90;;;;;;5031679;28;20179;-51
2022/04/19 07:18:15;;;;;;;4.83;4.37;;;9.40;99.90;;;;;;5031477;28;20168;-55
2022/04/19 07:28:52;;;;;;;6.77;4.93;;;9.30;99.90;;;;;;5032142;28;20179;-55
2022/04/19 07:31:18;;;;;;;4.90;4.37;;;9.20;99.90;;;;;;5035496;28;20171;-55
2022/04/19 07:33:43;;;;;;;5.13;4.63;;;9.20;99.90;;;;;;5034720;28;20644;-54
2022/04/19 07:36:09;;;;;;;4.67;4.27;;;9.20;99.90;;;;;;5035411;28;20592;-56
2022/04/19 07:38:35;;;;;;;5.33;4.30;;;9.20;99.90;;;;;;5035133;28;20656;-56
2022/04/19 07:41:00;;;;;;;4.53;4.13;;;9.40;99.90;;;;;;5035085;28;20250;-55
2022/04/19 07:43:26;;;;;;;4.70;4.30;;;9.60;99.90;;;;;;5035209;28;20188;-52
2022/04/19 07:45:52;;;;;;;4.63;4.13;;;9.70;99.90;;;;;;5035170;28;20210;-57
2022/04/19 07:48:18;;;;;;;4.97;4.50;;;9.70;99.90;;;;;;5035633;28;20174;-56
2022/04/19 07:50:44;;;;;;;5.53;5.03;;;9.70;99.90;;;;;;5035367;28;20183;-52
2022/04/19 07:53:09;;;;;;;4.80;4.30;;;9.70;99.90;;;;;;5035067;28;20230;-56
2022/04/19 07:55:36;;;;;;;6.80;5.37;;;9.70;99.90;;;;;;5035443;28;20179;-57
2022/04/19 07:58:02;;;;;;;6.53;4.40;;;9.80;99.90;;;;;;5036000;28;20637;-56
2022/04/19 08:00:27;;;;;;;5.73;5.10;;;9.90;99.90;;;;;;5036152;28;20168;-56
2022/04/19 08:02:57;;;;;;;4.70;4.23;;;10.00;99.90;;;;;;5034937;28;20183;-54
2022/04/19 08:05:24;;;;;;;4.90;4.13;;;10.10;99.90;;;;;;5035222;28;20187;-53
2022/04/19 08:07:50;;;;;;;4.20;3.90;;;10.40;99.90;;;;;;5035964;28;20167;-53
2022/04/19 08:10:17;;;;;;;5.30;4.60;;;10.80;99.90;;;;;;5036039;28;20164;-52
2022/04/19 08:12:43;;;;;;;6.43;4.47;;;11.00;99.90;;;;;;5034767;28;20160;-56
2022/04/19 08:15:09;;;;;;;4.50;4.10;;;11.00;99.90;;;;;;5035376;28;20164;-54
2022/04/19 08:17:36;;;;;;;4.73;4.23;;;11.20;99.90;;;;;;5035602;28;20263;-56
2022/04/19 08:20:03;;;;;;;5.43;4.23;;;11.30;99.90;;;;;;5016990;28;20191;-55
2022/04/19 08:22:29;;;;;;;4.10;3.77;;;11.40;99.90;;;;;;5034849;28;20203;-55
2022/04/19 08:24:55;;;;;;;4.77;3.80;;;11.50;99.90;;;;;;5035107;28;20286;-55
2022/04/19 08:27:20;;;;;;;4.70;4.30;;;11.50;99.90;;;;;;5035328;28;20172;-51
2022/04/19 08:29:46;;;;;;;4.77;4.13;;;11.30;99.90;;;;;;5035390;28;20538;-54
2022/04/19 08:32:13;;;;;;;5.13;4.17;;;11.40;99.90;;;;;;5035614;28;20252;-53
2022/04/19 08:34:39;;;;;;;4.67;3.80;;;11.20;99.90;;;;;;5035861;28;20207;-54
2022/04/19 08:37:05;;;;;;;4.93;3.67;;;10.90;99.90;;;;;;5036360;28;20180;-55
2022/04/19 08:39:31;;;;;;;5.17;3.70;;;10.70;99.90;;;;;;5036803;28;20183;-51
2022/04/19 08:41:57;;;;;;;5.73;4.30;;;10.60;99.90;;;;;;5034316;28;20167;-54
2022/04/19 08:44:23;;;;;;;5.77;4.30;;;10.50;99.90;;;;;;5034985;28;20282;-53
2022/04/19 08:46:49;;;;;;;4.50;4.10;;;10.50;99.90;;;;;;5034760;28;20246;-55
2022/04/19 08:49:17;;;;;;;5.30;4.13;;;10.70;99.90;;;;;;5035142;28;20679;-57
2022/04/19 08:51:44;;;;;;;5.43;4.17;;;10.60;99.90;;;;;;5034911;28;20225;-54
2022/04/19 08:59:40;;;;;;;4.63;4.10;;;10.20;99.90;;;;;;5034275;28;20186;-57
2022/04/19 09:02:07;;;;;;;5.23;4.53;;;10.20;99.90;;;;;;5034302;28;20172;-54
2022/04/19 09:04:33;;;;;;;5.03;4.30;;;10.10;99.90;;;;;;5035840;28;20200;-54
2022/04/19 09:07:00;;;;;;;5.37;4.70;;;10.20;99.90;;;;;;5037477;28;20168;-54
2022/04/19 09:09:34;;;;;;;4.97;4.47;;;10.20;99.90;;;;;;5036252;28;20182;-51
2022/04/19 09:12:08;;;;;;;5.30;4.80;;;10.20;99.90;;;;;;5036886;28;20177;-54
2022/04/19 09:14:33;;;;;;;5.10;4.60;;;10.30;99.90;;;;;;5036323;28;20288;-51
2022/04/19 09:17:05;;;;;;;5.40;4.20;;;10.20;99.90;;;;;;5018450;28;20255;-55
2022/04/19 09:19:31;;;;;;;5.80;5.20;;;10.10;99.90;;;;;;5036441;28;20206;-54
2022/04/19 09:21:57;;;;;;;5.17;4.60;;;10.10;99.90;;;;;;5034213;28;20250;-54
2022/04/19 09:24:24;;;;;;;7.80;4.60;;;10.10;99.90;;;;;;5033643;28;20200;-55
2022/04/19 09:26:49;;;;;;;5.87;4.90;;;10.20;99.90;;;;;;5034117;28;20595;-55
2022/04/19 09:29:26;;;;;;;7.30;4.70;;;10.20;99.90;;;;;;5034689;28;20250;-51
2022/04/19 09:31:54;;;;;;;5.03;4.53;;;10.10;99.90;;;;;;5034423;28;20246;-56
2022/04/19 09:34:33;;;;;;;4.57;4.17;;;10.10;99.90;;;;;;5033526;28;20214;-53
2022/04/19 09:37:10;;;;;;;5.10;4.60;;;10.10;99.90;;;;;;5034356;28;20649;-55
2022/04/19 09:39:37;;;;;;;5.60;4.70;;;10.10;99.90;;;;;;5033942;28;20256;-56
2022/04/19 09:42:08;;;;;;;5.10;4.60;;;10.20;99.90;;;;;;5034213;28;20172;-53
2022/04/19 09:44:37;;;;;;;5.30;4.80;;;10.40;99.90;;;;;;5033881;28;20203;-55
2022/04/19 09:47:12;;;;;;;5.67;5.07;;;10.30;99.90;;;;;;5034069;28;20179;-57
2022/04/19 09:49:45;;;;;;;6.63;4.40;;;10.20;99.90;;;;;;5034439;28;20168;-55
2022/04/19 09:52:36;;;;;;;7.47;4.50;;;10.20;99.90;;;;;;5034668;28;20160;-59
2022/04/19 09:55:08;;;;;;;6.23;4.53;;;10.20;99.90;;;;;;5028728;28;20231;-57
2022/04/19 09:57:36;;;;;;;4.60;4.20;;;10.30;99.90;;;;;;5033831;28;20254;-55
2022/04/19 10:00:05;;;;;;;7.43;4.33;;;10.30;99.90;;;;;;5033634;28;20179;-56
2022/04/19 10:10:48;;;;;;;5.00;4.47;;;10.60;99.90;;;;;;5035499;28;20241;-56
2022/04/19 10:13:17;;;;;;;4.30;3.90;;;11.20;99.90;;;;;;5034092;28;20199;-53
2022/04/19 10:15:42;;;;;;;4.50;4.10;;;10.80;99.90;;;;;;5034866;28;20180;-54
2022/04/19 10:18:08;;;;;;;4.40;4.00;;;10.70;99.90;;;;;;5034103;28;20593;-56
2022/04/19 10:20:39;;;;;;;4.03;3.63;;;10.90;99.90;;;;;;5035100;28;20172;-51
2022/04/19 10:23:09;;;;;;;4.47;3.60;;;11.20;99.90;;;;;;5033710;28;20310;-52
2022/04/19 10:25:46;;;;;;;3.70;3.17;;;11.30;99.90;;;;;;5033692;28;20245;-55
2022/04/19 10:28:19;;;;;;;3.83;3.53;;;;;;;;;;5034934;28;20180;-56
2022/04/19 10:30:51;;;;;;;3.93;3.53;;;11.10;99.90;;;;;;5035728;28;20317;-52
2022/04/19 10:33:38;;;;;;;4.13;3.73;;;11.20;99.90;;;;;;5035660;28;20208;-53
2022/04/19 10:36:10;;;;;;;5.23;3.47;;;11.30;99.90;;;;;;5034845;28;20629;-55
2022/04/19 10:38:36;;;;;;;4.37;3.60;;;11.50;99.90;;;;;;5034074;28;20229;-56
2022/04/19 10:41:03;;;;;;;4.50;3.50;;;11.60;99.90;;;;;;5033480;28;20198;-54
2022/04/19 10:43:29;;;;;;;4.03;3.63;;;11.60;99.50;;;;;;5033177;28;20739;-57
2022/04/19 10:46:14;;;;;;;4.03;3.40;;;11.80;99.90;;;;;;5032846;28;20207;-55
2022/04/19 10:49:18;;;;;;;5.10;3.30;;;11.90;99.90;;;;;;5034270;28;20183;-53
2022/04/19 10:51:44;;;;;;;3.97;3.53;;;12.10;99.60;;;;;;5033341;28;20172;-56
2022/04/19 10:54:09;;;;;;;3.70;3.23;;;12.10;99.60;;;;;;5033703;28;20665;-56
2022/04/19 10:57:13;;;;;;;4.20;3.20;;;12.30;99.80;;;;;;5034706;28;20184;-55
2022/04/19 10:59:38;;;;;;;4.37;3.20;;;12.50;99.10;;;;;;5034350;28;20184;-57
2022/04/19 11:02:36;;;;;;;4.83;3.00;;;12.60;98.10;;;;;;5034097;28;20264;-56
2022/04/19 11:05:03;;;;;;;3.83;3.53;;;12.60;97.90;;;;;;4995192;28;20364;-56
2022/04/19 11:07:49;;;;;;;2.97;2.63;;;12.40;96.80;;;;;;4996636;28;20180;-54
2022/04/19 11:10:37;;;;;;;3.50;3.03;;;12.30;98.00;;;;;;4996543;28;20188;-58
2022/04/19 11:13:04;;;;;;;3.40;2.83;;;12.30;98.40;;;;;;4995134;28;20208;-56
2022/04/19 11:15:38;;;;;;;4.00;2.90;;;12.40;98.60;;;;;;4996105;28;20173;-56
2022/04/19 11:18:25;;;;;;;3.13;2.83;;;12.70;98.70;;;;;;4996516;28;20215;-53
2022/04/19 11:20:59;;;;;;;3.27;3.00;;;12.80;99.50;;;;;;4995683;28;20193;-52
2022/04/19 11:23:26;;;;;;;3.70;3.40;;;12.90;99.00;;;;;;4995300;28;20228;-52
2022/04/19 11:25:53;;;;;;;4.67;3.37;;;12.90;99.40;;;;;;4994902;28;20216;-56
2022/04/19 11:28:20;;;;;;;3.10;2.90;;;12.90;99.90;;;;;;4995012;28;20196;-56
2022/04/19 11:30:57;;;;;;;4.30;3.00;;;13.00;99.90;;;;;;4978818;28;20180;-53
2022/04/19 11:33:29;;;;;;;3.80;3.40;;;13.10;99.50;;;;;;4994631;28;20216;-56
2022/04/19 11:36:13;;;;;;;3.70;3.40;;;12.90;99.90;;;;;;4995337;28;20208;-54
2022/04/19 11:38:45;;;;;;;3.77;3.30;;;15.50;99.90;;;;;;4997134;28;20178;-55
2022/04/19 11:46:44;;;;;;;3.33;3.03;;;12.60;99.90;;;;;;5038547;28;20314;-57
2022/04/19 11:49:11;;;;;;;4.00;3.53;;;12.80;99.90;;;;;;5038036;28;20207;-53
2022/04/19 11:51:37;;;;;;;4.53;3.43;;;12.90;99.90;;;;;;5037279;28;20239;-53
2022/04/19 11:54:04;;;;;;;3.40;3.10;;;13.00;99.90;;;;;;5035940;28;20192;-54
2022/04/19 11:56:30;;;;;;;4.03;3.30;;;13.20;99.90;;;;;;5036280;28;20177;-55
2022/04/19 11:59:00;;;;;;;3.47;3.13;;;13.30;99.90;;;;;;5036489;28;20519;-56
2022/04/19 12:01:28;;;;;;;3.60;2.93;;;13.20;99.90;;;;;;5035543;28;20178;-53
2022/04/19 12:03:54;;;;;;;4.20;3.40;;;13.20;99.90;;;;;;5035191;28;20253;-54
2022/04/19 12:06:20;;;;;;;3.33;3.03;;;13.20;99.90;;;;;;5035534;28;20169;-57
2022/04/19 12:08:49;;;;;;;3.37;3.07;;;13.40;99.90;;;;;;5035705;28;20180;-56
2022/04/19 12:11:29;;;;;;;3.20;2.90;;;13.50;99.90;;;;;;5034592;28;20176;-55
2022/04/19 12:13:56;;;;;;;3.77;3.23;;;13.50;99.90;;;;;;5034691;28;20191;-53
2022/04/19 12:16:31;;;;;;;3.30;3.00;;;13.50;99.90;;;;;;5034797;28;20656;-54
2022/04/19 12:18:58;;;;;;;3.63;2.97;;;;;;;;;;5034272;28;20556;-56
2022/04/19 12:21:41;;;;;;;3.10;2.80;;;13.50;99.90;;;;;;5033154;28;20176;-56
2022/04/19 12:24:18;;;;;;;3.20;2.90;;;13.50;99.90;;;;;;5032561;28;20197;-57
2022/04/19 12:26:44;;;;;;;3.03;2.83;;;13.50;99.90;;;;;;5033350;28;20176;-52
2022/04/19 12:29:14;;;;;;;3.43;3.07;;;13.40;99.90;;;;;;5033391;28;20176;-56
2022/04/19 12:31:41;;;;;;;3.10;2.80;;;13.40;99.90;;;;;;5031635;28;20175;-56
2022/04/19 12:34:08;;;;;;;3.93;3.33;;;13.30;99.90;;;;;;5032599;28;20208;-55
2022/04/19 12:36:41;;;;;;;4.23;2.90;;;13.30;99.90;;;;;;5035408;28;20172;-54
2022/04/19 12:39:08;;;;;;;3.30;3.00;;;13.10;99.90;;;;;;5034173;28;20183;-53
2022/04/19 12:41:44;;;;;;;4.37;3.03;;;12.80;99.90;;;;;;5034746;28;20179;-58
2022/04/19 12:44:15;;;;;;;3.67;3.37;;;12.40;99.90;;;;;;5033828;28;20195;-57
2022/04/19 12:46:45;;;;;;;5.53;3.17;;;12.40;99.90;;;;;;5034649;28;20167;-55
2022/04/19 12:49:29;;;;;;;4.67;3.70;;;12.20;99.90;;;;;;5016729;28;20538;-53
2022/04/19 12:52:08;;;;;;;4.17;3.53;;;12.20;99.90;;;;;;5034564;28;20168;-55
2022/04/19 12:54:36;;;;;;;5.47;4.67;;;12.10;99.90;;;;;;5033578;28;20203;-55
2022/04/19 12:57:17;;;;;;;4.80;3.50;;;12.10;99.90;;;;;;5034191;28;20211;-58
2022/04/19 12:59:43;;;;;;;4.90;3.80;;;12.10;99.90;;;;;;5034075;28;20187;-57
2022/04/19 13:02:13;;;;;;;3.90;3.60;;;12.30;99.90;;;;;;5034122;28;20606;-57
2022/04/19 13:04:39;;;;;;;3.50;3.20;;;12.40;99.90;;;;;;5033620;28;20210;-57
2022/04/19 13:12:33;;;;;;;3.10;2.90;;;12.70;99.90;;;;;;5025528;28;20187;-55
2022/04/19 13:15:00;;;;;;;3.57;2.90;;;12.70;99.90;;;;;;5033959;28;20657;-56
2022/04/19 13:17:30;;;;;;;3.60;3.30;;;12.80;99.90;;;;;;5033875;28;20226;-57
2022/04/19 13:19:56;;;;;;;6.47;5.87;;;12.90;99.90;;;;;;5034015;28;20172;-57
2022/04/19 13:22:22;;;;;;;4.10;3.70;;;13.00;99.90;;;;;;5033509;28;20190;-58
2022/04/19 13:24:50;;;;;;;3.77;3.40;;;13.00;99.90;;;;;;5034069;28;20241;-53
2022/04/19 13:27:15;;;;;;;3.10;2.87;;;13.00;99.90;;;;;;5033304;28;20203;-56
2022/04/19 13:29:42;;;;;;;4.10;3.10;;;13.00;99.90;;;;;;5033999;28;20204;-54
2022/04/19 13:32:09;;;;;;;4.20;3.90;;;13.10;99.90;;;;;;5033484;28;20180;-55
2022/04/19 13:34:35;;;;;;;4.23;3.83;;;13.10;99.90;;;;;;5033123;28;20227;-54
2022/04/19 13:37:01;;;;;;;3.80;3.43;;;13.10;99.90;;;;;;5033589;28;20179;-56
2022/04/19 13:39:27;;;;;;;3.50;3.20;;;14.40;99.90;;;;;;5033610;28;20176;-57
2022/04/19 13:41:53;;;;;;;3.80;3.50;;;12.40;99.90;;;;;;5033307;28;20197;-54
2022/04/19 13:44:20;;;;;;;3.87;3.47;;;12.10;99.90;;;;;;5032412;28;20216;-55
2022/04/19 13:46:46;;;;;;;3.40;3.10;;;11.90;99.90;;;;;;5033149;28;20176;-55